Private Wetterstation Wechselburg
Wetterdaten: Woche 16.09.13 - 22.09.13 (KW38)
Datum Zeit Temp. +2m Bodentemp. Temp.+5cm Temp. Wind Windchill X Diff Temp. Feuchte +2m Feuchte +5cm Sonnenschein Luftdruck Regen Wind Richtung Sonnenschein UV Taupunkt Windchill Windben
16.09.2013 00:00 11,3 C 23,0 C 12,6 C 11,7 C 11,7 C 0,3 C 89 % 83 % 0 % 1006,1 hPa 0,0 l/m 0,0 km/h (0 Bft) N 0,00 h 0,0 UV-I 9,5 C 11,7 C 0,0 km/h (0 Bft)
16.09.2013 01:00 11,3 C 22,9 C 12,9 C 12,1 C 12,1 C 0,8 C 89 % 83 % 0 % 1005,7 hPa 0,0 l/m 0,0 km/h (0 Bft) N 0,00 h 0,0 UV-I 9,6 C 12,1 C 0,0 km/h (0 Bft)
16.09.2013 02:00 11,7 C 22,8 C 13,2 C 12,7 C 12,7 C 1,0 C 90 % 84 % 0 % 1005,1 hPa 0,0 l/m 0,0 km/h (0 Bft) N 0,00 h 0,0 UV-I 10,1 C 12,7 C 0,3 km/h (0 Bft)
16.09.2013 03:00 12,2 C 22,7 C 13,6 C 13,3 C 13,3 C 1,1 C 90 % 83 % 0 % 1004,4 hPa 0,0 l/m 0,3 km/h (0 Bft) N 0,00 h 0,0 UV-I 10,6 C 13,3 C 0,8 km/h (0 Bft)
16.09.2013 04:00 12,4 C 22,6 C 13,6 C 13,2 C 13,2 C 0,8 C 89 % 83 % 0 % 1003,8 hPa 0,0 l/m 0,4 km/h (0 Bft) N 0,00 h 0,0 UV-I 10,6 C 13,2 C 1,3 km/h (1 Bft)
16.09.2013 05:00 12,9 C 22,4 C 13,6 C 13,4 C 13,4 C 0,6 C 86 % 82 % 0 % 1003,1 hPa 0,0 l/m 0,7 km/h (0 Bft) N 0,00 h 0,0 UV-I 10,5 C 13,4 C 2,2 km/h (1 Bft)
16.09.2013 06:00 13,5 C 22,3 C 13,6 C 13,6 C 13,6 C 0,1 C 82 % 82 % 0 % 1002,5 hPa 0,0 l/m 2,0 km/h (1 Bft) S-SW 0,00 h 0,0 UV-I 10,5 C 13,6 C 5,0 km/h (1 Bft)
16.09.2013 07:00 13,5 C 22,2 C 13,3 C 13,4 C 13,2 C 0,0 C 78 % 80 % 0 % 1002,6 hPa 0,0 l/m 1,9 km/h (1 Bft) S 0,00 h 0,0 UV-I 9,8 C 13,2 C 3,6 km/h (1 Bft)
16.09.2013 08:00 13,5 C 22,2 C 13,4 C 13,7 C 13,7 C 0,2 C 78 % 79 % 5 % 1002,5 hPa 0,0 l/m 2,1 km/h (1 Bft) S-SO 0,00 h 0,0 UV-I 9,8 C 13,7 C 3,0 km/h (1 Bft)
16.09.2013 09:00 13,9 C 22,1 C 13,8 C 14,4 C 14,4 C 0,5 C 77 % 78 % 13 % 1002,4 hPa 0,0 l/m 2,6 km/h (1 Bft) S 0,00 h 0,0 UV-I 9,9 C 14,4 C 3,8 km/h (1 Bft)
16.09.2013 10:00 14,4 C 22,0 C 14,5 C 15,4 C 15,4 C 1,0 C 76 % 77 % 26 % 1002,3 hPa 0,0 l/m 2,9 km/h (1 Bft) SO 0,00 h 0,0 UV-I 10,2 C 15,4 C 5,7 km/h (1 Bft)
16.09.2013 11:00 14,9 C 21,9 C 14,9 C 15,9 C 15,9 C 1,0 C 75 % 76 % 27 % 1002,4 hPa 0,0 l/m 2,9 km/h (1 Bft) SW 0,00 h 0,0 UV-I 10,5 C 15,9 C 4,6 km/h (1 Bft)
16.09.2013 12:00 15,5 C 21,9 C 15,6 C 17,1 C 17,1 C 1,6 C 73 % 75 % 42 % 1002,0 hPa 0,0 l/m 4,3 km/h (1 Bft) W 0,00 h 0,0 UV-I 10,7 C 17,1 C 5,9 km/h (2 Bft)
16.09.2013 13:00 16,3 C 21,9 C 16,6 C 18,4 C 18,4 C 2,1 C 72 % 74 % 54 % 1001,7 hPa 0,0 l/m 3,9 km/h (1 Bft) S 0,00 h 0,0 UV-I 11,4 C 18,4 C 6,5 km/h (2 Bft)
16.09.2013 14:00 16,3 C 21,9 C 16,5 C 17,8 C 17,8 C 1,5 C 73 % 74 % 39 % 1001,8 hPa 0,0 l/m 3,6 km/h (1 Bft) S-SO 0,00 h 0,0 UV-I 11,4 C 17,8 C 5,4 km/h (1 Bft)
16.09.2013 15:00 16,4 C 22,0 C 16,6 C 18,2 C 18,2 C 1,8 C 73 % 73 % 47 % 1001,3 hPa 0,0 l/m 2,4 km/h (1 Bft) SO 0,00 h 0,0 UV-I 11,4 C 18,2 C 3,5 km/h (1 Bft)
16.09.2013 16:00 15,9 C 22,0 C 16,1 C 17,1 C 17,1 C 1,1 C 74 % 75 % 29 % 1000,8 hPa 0,0 l/m 2,1 km/h (1 Bft) S 0,00 h 0,0 UV-I 11,4 C 17,1 C 3,3 km/h (1 Bft)
16.09.2013 17:00 15,8 C 22,0 C 15,8 C 16,4 C 16,4 C 0,5 C 74 % 76 % 14 % 1000,2 hPa 0,0 l/m 1,4 km/h (1 Bft) W 0,00 h 0,0 UV-I 11,3 C 16,4 C 2,0 km/h (1 Bft)
16.09.2013 18:00 15,5 C 22,0 C 15,3 C 15,4 C 15,3 C 0,0 C 75 % 77 % 0 % 1000,1 hPa 0,0 l/m 0,7 km/h (0 Bft) S-SO 0,00 h 0,0 UV-I 11,1 C 15,3 C 1,1 km/h (0 Bft)
16.09.2013 19:00 14,5 C 22,2 C 14,3 C 14,2 C 13,6 C 0,0 C 79 % 79 % 0 % 1000,0 hPa 0,0 l/m 1,2 km/h (1 Bft) SW 0,00 h 0,0 UV-I 10,8 C 13,6 C 1,6 km/h (1 Bft)
16.09.2013 20:00 12,5 C 22,5 C 12,8 C 12,3 C 12,0 C 0,0 C 84 % 83 % 0 % 1000,2 hPa 2,7 l/m 1,8 km/h (1 Bft) W-SW 0,00 h 0,0 UV-I 9,8 C 12,0 C 2,9 km/h (1 Bft)
16.09.2013 21:00 10,5 C 22,6 C 11,6 C 10,7 C 10,7 C 0,3 C 86 % 85 % 0 % 1000,7 hPa 2,1 l/m 2,4 km/h (1 Bft) SW 0,00 h 0,0 UV-I 8,3 C 10,7 C 3,0 km/h (1 Bft)
16.09.2013 22:00 9,6 C 22,5 C 10,9 C 10,1 C 10,1 C 0,5 C 88 % 86 % 0 % 1000,8 hPa 0,7 l/m 0,2 km/h (0 Bft) N 0,00 h 0,0 UV-I 7,7 C 10,1 C 0,3 km/h (0 Bft)
16.09.2013 23:00 9,4 C 22,4 C 10,8 C 10,0 C 10,0 C 0,6 C 89 % 87 % 0 % 1001,1 hPa 0,0 l/m 0,2 km/h (0 Bft) N 0,00 h 0,0 UV-I 7,6 C 10,0 C 0,2 km/h (0 Bft)
17.09.2013 00:00 9,3 C 22,3 C 10,7 C 10,0 C 10,0 C 0,7 C 89 % 88 % 0 % 1001,1 hPa 0,7 l/m 0,2 km/h (0 Bft) N 0,00 h 0,0 UV-I 7,6 C 10,0 C 0,3 km/h (0 Bft)
17.09.2013 01:00 9,0 C 22,2 C 10,4 C 9,6 C 9,6 C 0,6 C 90 % 88 % 0 % 1000,8 hPa 0,0 l/m 0,4 km/h (0 Bft) N 0,00 h 0,0 UV-I 7,4 C 9,6 C 0,6 km/h (0 Bft)
17.09.2013 02:00 8,6 C 22,1 C 9,9 C 8,8 C 8,8 C 0,2 C 89 % 88 % 0 % 1001,0 hPa 0,7 l/m 0,0 km/h (0 Bft) N 0,00 h 0,0 UV-I 6,9 C 8,8 C 0,0 km/h (0 Bft)
17.09.2013 03:00 8,3 C 22,0 C 9,3 C 8,2 C 8,1 C 0,0 C 90 % 89 % 0 % 1001,8 hPa 0,0 l/m 0,3 km/h (0 Bft) W 0,00 h 0,0 UV-I 6,7 C 8,1 C 0,6 km/h (0 Bft)
17.09.2013 04:00 7,5 C 22,0 C 9,1 C 7,8 C 7,8 C 0,3 C 90 % 89 % 0 % 1002,0 hPa 0,0 l/m 0,6 km/h (0 Bft) W-SW 0,00 h 0,0 UV-I 5,9 C 7,8 C 1,4 km/h (1 Bft)
17.09.2013 05:00 7,0 C 22,0 C 8,4 C 7,0 C 7,0 C 0,1 C 90 % 89 % 0 % 1002,5 hPa 0,0 l/m 0,1 km/h (0 Bft) N 0,00 h 0,0 UV-I 5,4 C 7,0 C 0,0 km/h (0 Bft)
17.09.2013 06:00 6,3 C 21,8 C 7,6 C 6,3 C 6,3 C 0,0 C 90 % 89 % 0 % 1002,7 hPa 0,0 l/m 0,0 km/h (0 Bft) N 0,00 h 0,0 UV-I 4,8 C 6,3 C 0,0 km/h (0 Bft)
17.09.2013 07:00 6,0 C 21,5 C 7,5 C 6,4 C 6,4 C 0,3 C 91 % 90 % 9 % 1003,1 hPa 0,0 l/m 0,0 km/h (0 Bft) N 0,00 h 0,0 UV-I 4,6 C 6,4 C 0,0 km/h (0 Bft)
17.09.2013 08:00 6,8 C 21,4 C 8,3 C 7,9 C 7,9 C 1,1 C 92 % 90 % 30 % 1003,2 hPa 0,0 l/m 0,1 km/h (0 Bft) S-SW 0,00 h 0,0 UV-I 5,5 C 7,9 C 0,4 km/h (0 Bft)
17.09.2013 09:00 7,3 C 21,3 C 8,7 C 8,7 C 8,7 C 1,3 C 92 % 89 % 35 % 1003,8 hPa 0,0 l/m 1,1 km/h (1 Bft) SW 0,00 h 0,0 UV-I 6,1 C 8,7 C 2,3 km/h (1 Bft)
17.09.2013 10:00 8,5 C 20,9 C 9,7 C 10,9 C 10,9 C 2,4 C 90 % 90 % 63 % 1004,2 hPa 0,0 l/m 5,3 km/h (1 Bft) S 0,00 h 0,0 UV-I 7,0 C 10,8 C 8,1 km/h (2 Bft)
17.09.2013 11:00 10,6 C 20,7 C 10,9 C 12,3 C 12,3 C 1,7 C 81 % 89 % 45 % 1004,6 hPa 0,0 l/m 6,7 km/h (2 Bft) S-SW 0,00 h 0,0 UV-I 7,5 C 12,3 C 10,4 km/h (2 Bft)
17.09.2013 12:00 12,4 C 20,6 C 14,2 C 15,0 C 15,0 C 2,6 C 73 % 87 % 64 % 1004,5 hPa 0,0 l/m 7,1 km/h (2 Bft) N-NO 0,50 h 0,0 UV-I 7,6 C 15,0 C 8,7 km/h (2 Bft)
17.09.2013 13:00 12,8 C 20,4 C 13,5 C 14,7 C 14,7 C 1,9 C 69 % 82 % 50 % 1004,4 hPa 0,0 l/m 6,7 km/h (2 Bft) W 0,08 h 0,0 UV-I 7,2 C 14,7 C 8,2 km/h (2 Bft)
17.09.2013 14:00 12,4 C 20,4 C 12,6 C 13,3 C 13,2 C 1,0 C 72 % 82 % 25 % 1004,5 hPa 0,0 l/m 4,0 km/h (1 Bft) SW 0,00 h 0,0 UV-I 7,4 C 13,2 C 5,4 km/h (1 Bft)
17.09.2013 15:00 13,4 C 20,4 C 13,3 C 15,3 C 15,3 C 1,9 C 66 % 80 % 50 % 1004,3 hPa 0,0 l/m 5,5 km/h (1 Bft) W-SW 0,00 h 0,0 UV-I 7,2 C 15,3 C 6,8 km/h (2 Bft)
17.09.2013 16:00 14,1 C 20,4 C 14,0 C 16,8 C 16,8 C 2,8 C 63 % 77 % 69 % 1004,1 hPa 0,0 l/m 5,9 km/h (2 Bft) SW 0,42 h 0,0 UV-I 7,0 C 16,8 C 7,1 km/h (2 Bft)
17.09.2013 17:00 13,9 C 20,4 C 14,5 C 17,2 C 17,2 C 3,3 C 61 % 73 % 85 % 1004,1 hPa 0,0 l/m 5,5 km/h (1 Bft) SW 0,75 h 0,0 UV-I 6,5 C 17,2 C 7,1 km/h (2 Bft)
17.09.2013 18:00 12,8 C 20,4 C 12,6 C 12,9 C 12,7 C 0,3 C 65 % 73 % 7 % 1004,6 hPa 0,0 l/m 2,5 km/h (1 Bft) W-SW 0,00 h 0,0 UV-I 6,4 C 12,7 C 2,9 km/h (1 Bft)
17.09.2013 19:00 11,1 C 20,4 C 10,9 C 10,8 C 10,0 C 0,0 C 71 % 76 % 0 % 1004,8 hPa 0,0 l/m 0,1 km/h (0 Bft) N 0,00 h 0,0 UV-I 6,1 C 10,0 C 0,3 km/h (0 Bft)
17.09.2013 20:00 9,0 C 20,5 C 9,1 C 8,4 C 7,1 C 0,0 C 78 % 80 % 0 % 1005,1 hPa 0,0 l/m 0,0 km/h (0 Bft) N 0,00 h 0,0 UV-I 5,4 C 7,1 C 0,0 km/h (0 Bft)
17.09.2013 21:00 8,0 C 20,4 C 8,6 C 7,8 C 7,3 C 0,0 C 82 % 82 % 0 % 1005,1 hPa 0,0 l/m 0,3 km/h (0 Bft) N 0,00 h 0,0 UV-I 5,2 C 7,3 C 0,7 km/h (0 Bft)
17.09.2013 22:00 8,3 C 20,4 C 8,6 C 8,0 C 7,5 C 0,0 C 81 % 82 % 0 % 1004,5 hPa 0,0 l/m 0,4 km/h (0 Bft) N 0,00 h 0,0 UV-I 5,3 C 7,5 C 0,3 km/h (0 Bft)
17.09.2013 23:00 8,0 C 20,4 C 8,2 C 7,7 C 7,0 C 0,0 C 82 % 82 % 0 % 1004,1 hPa 0,0 l/m 0,5 km/h (0 Bft) N 0,00 h 0,0 UV-I 5,2 C 7,0 C 1,2 km/h (1 Bft)
18.09.2013 00:00 8,4 C 20,3 C 8,6 C 8,3 C 7,9 C 0,0 C 83 % 83 % 0 % 1003,7 hPa 0,0 l/m 1,1 km/h (0 Bft) O 0,00 h 0,0 UV-I 5,7 C 7,9 C 1,9 km/h (1 Bft)
18.09.2013 01:00 9,1 C 20,2 C 9,1 C 8,9 C 8,7 C 0,0 C 82 % 82 % 0 % 1002,8 hPa 0,0 l/m 1,2 km/h (1 Bft) S 0,00 h 0,0 UV-I 6,1 C 8,7 C 2,2 km/h (1 Bft)
18.09.2013 02:00 9,4 C 20,2 C 9,4 C 9,3 C 9,0 C 0,0 C 82 % 82 % 0 % 1002,0 hPa 0,0 l/m 0,4 km/h (0 Bft) N 0,00 h 0,0 UV-I 6,5 C 9,0 C 0,5 km/h (0 Bft)
18.09.2013 03:00 9,3 C 20,1 C 9,2 C 9,0 C 8,6 C 0,0 C 83 % 83 % 0 % 1001,0 hPa 0,0 l/m 0,1 km/h (0 Bft) N 0,00 h 0,0 UV-I 6,5 C 8,6 C 0,1 km/h (0 Bft)
18.09.2013 04:00 9,2 C 20,1 C 9,2 C 9,1 C 8,8 C 0,0 C 83 % 83 % 0 % 999,7 hPa 0,0 l/m 0,2 km/h (0 Bft) N 0,00 h 0,0 UV-I 6,5 C 8,8 C 0,4 km/h (0 Bft)
18.09.2013 05:00 9,0 C 20,1 C 9,1 C 8,8 C 8,4 C 0,0 C 84 % 83 % 0 % 998,6 hPa 0,0 l/m 0,0 km/h (0 Bft) N 0,00 h 0,0 UV-I 6,4 C 8,4 C 0,1 km/h (0 Bft)
18.09.2013 06:00 8,3 C 20,4 C 9,1 C 8,3 C 8,1 C 0,0 C 85 % 84 % 0 % 997,9 hPa 0,0 l/m 0,2 km/h (0 Bft) N 0,00 h 0,0 UV-I 6,0 C 8,1 C 0,4 km/h (0 Bft)
18.09.2013 07:00 7,9 C 20,6 C 9,1 C 8,3 C 8,3 C 0,4 C 87 % 85 % 11 % 997,3 hPa 0,7 l/m 0,1 km/h (0 Bft) N 0,00 h 0,0 UV-I 5,8 C 8,3 C 0,3 km/h (0 Bft)
18.09.2013 08:00 8,2 C 20,6 C 9,7 C 9,1 C 9,1 C 0,9 C 88 % 87 % 25 % 997,0 hPa 0,0 l/m 0,5 km/h (0 Bft) O-NO 0,00 h 0,0 UV-I 6,4 C 9,1 C 1,7 km/h (1 Bft)
18.09.2013 09:00 9,1 C 20,5 C 10,5 C 10,5 C 10,5 C 1,4 C 89 % 87 % 36 % 996,7 hPa 0,0 l/m 0,1 km/h (0 Bft) N 0,00 h 0,0 UV-I 7,4 C 10,5 C 0,0 km/h (0 Bft)
18.09.2013 10:00 10,4 C 20,6 C 11,5 C 11,7 C 11,7 C 1,3 C 89 % 87 % 34 % 996,9 hPa 0,7 l/m 0,2 km/h (0 Bft) N 0,00 h 0,0 UV-I 8,6 C 11,7 C 0,1 km/h (0 Bft)
18.09.2013 11:00 11,2 C 20,6 C 12,3 C 12,3 C 12,3 C 1,1 C 88 % 87 % 28 % 997,1 hPa 0,0 l/m 2,5 km/h (1 Bft) S 0,00 h 0,0 UV-I 9,3 C 12,3 C 6,5 km/h (2 Bft)
18.09.2013 12:00 12,4 C 20,4 C 13,4 C 14,3 C 14,3 C 1,8 C 86 % 87 % 48 % 997,3 hPa 0,0 l/m 5,3 km/h (1 Bft) W-SW 0,00 h 0,0 UV-I 10,1 C 14,3 C 7,4 km/h (2 Bft)
18.09.2013 13:00 13,1 C 20,4 C 13,5 C 14,6 C 14,6 C 1,5 C 83 % 86 % 38 % 997,7 hPa 0,0 l/m 5,3 km/h (1 Bft) W 0,00 h 0,0 UV-I 10,4 C 14,6 C 7,9 km/h (2 Bft)
18.09.2013 14:00 13,8 C 20,3 C 14,1 C 15,3 C 15,3 C 1,6 C 80 % 86 % 41 % 997,8 hPa 0,0 l/m 5,4 km/h (1 Bft) W-SW 0,00 h 0,0 UV-I 10,5 C 15,3 C 6,4 km/h (2 Bft)
18.09.2013 15:00 13,7 C 20,3 C 13,7 C 14,9 C 14,9 C 1,2 C 78 % 84 % 31 % 998,1 hPa 0,0 l/m 4,1 km/h (1 Bft) SW 0,00 h 0,0 UV-I 10,0 C 14,9 C 5,7 km/h (1 Bft)
18.09.2013 16:00 12,9 C 20,4 C 13,0 C 13,7 C 13,7 C 0,9 C 77 % 83 % 23 % 998,8 hPa 0,0 l/m 3,9 km/h (1 Bft) W-SW 0,00 h 0,0 UV-I 9,0 C 13,7 C 5,5 km/h (1 Bft)
18.09.2013 17:00 12,4 C 20,4 C 12,5 C 13,0 C 13,0 C 0,6 C 75 % 82 % 15 % 999,6 hPa 0,0 l/m 3,2 km/h (1 Bft) S 0,00 h 0,0 UV-I 8,2 C 13,0 C 3,6 km/h (1 Bft)
18.09.2013 18:00 11,9 C 20,4 C 11,9 C 12,1 C 12,1 C 0,2 C 74 % 81 % 5 % 1000,6 hPa 0,0 l/m 2,0 km/h (1 Bft) S 0,00 h 0,0 UV-I 7,5 C 12,1 C 2,8 km/h (1 Bft)
18.09.2013 19:00 11,3 C 20,4 C 11,2 C 11,2 C 11,0 C 0,0 C 75 % 81 % 0 % 1001,5 hPa 0,0 l/m 1,4 km/h (1 Bft) S 0,00 h 0,0 UV-I 7,1 C 11,0 C 2,0 km/h (1 Bft)
18.09.2013 20:00 10,8 C 20,3 C 10,8 C 10,7 C 10,6 C 0,0 C 76 % 81 % 0 % 1002,0 hPa 0,0 l/m 1,5 km/h (1 Bft) W-SW 0,00 h 0,0 UV-I 6,8 C 10,6 C 2,2 km/h (1 Bft)
18.09.2013 21:00 10,4 C 20,3 C 10,5 C 10,3 C 10,1 C 0,0 C 78 % 81 % 0 % 1003,1 hPa 0,0 l/m 1,2 km/h (1 Bft) W-SW 0,00 h 0,0 UV-I 6,7 C 10,1 C 1,4 km/h (1 Bft)
18.09.2013 22:00 9,9 C 20,3 C 10,1 C 9,7 C 9,6 C 0,0 C 80 % 81 % 0 % 1003,6 hPa 0,0 l/m 0,5 km/h (0 Bft) W-SW 0,00 h 0,0 UV-I 6,6 C 9,6 C 1,0 km/h (0 Bft)
18.09.2013 23:00 9,6 C 20,2 C 9,9 C 9,6 C 9,5 C 0,0 C 81 % 82 % 0 % 1004,4 hPa 0,0 l/m 1,5 km/h (1 Bft) W-SW 0,00 h 0,0 UV-I 6,6 C 9,5 C 2,2 km/h (1 Bft)
19.09.2013 00:00 9,1 C 20,2 C 9,4 C 8,9 C 8,4 C 0,0 C 82 % 82 % 0 % 1004,7 hPa 0,0 l/m 1,9 km/h (1 Bft) S 0,00 h 0,0 UV-I 6,3 C 8,4 C 2,4 km/h (1 Bft)
19.09.2013 01:00 7,8 C 20,3 C 8,6 C 7,6 C 7,1 C 0,0 C 85 % 83 % 0 % 1005,4 hPa 0,0 l/m 0,8 km/h (0 Bft) SW 0,00 h 0,0 UV-I 5,4 C 7,1 C 1,1 km/h (1 Bft)
19.09.2013 02:00 6,8 C 20,4 C 7,9 C 6,7 C 6,5 C 0,0 C 86 % 83 % 0 % 1006,0 hPa 0,0 l/m 0,2 km/h (0 Bft) N 0,00 h 0,0 UV-I 4,6 C 6,5 C 0,4 km/h (0 Bft)
19.09.2013 03:00 6,3 C 20,4 C 7,8 C 6,5 C 6,5 C 0,2 C 87 % 84 % 0 % 1006,6 hPa 0,0 l/m 0,4 km/h (0 Bft) S-SW 0,00 h 0,0 UV-I 4,4 C 6,5 C 0,6 km/h (0 Bft)
19.09.2013 04:00 6,2 C 20,3 C 7,8 C 6,8 C 6,8 C 0,6 C 89 % 85 % 0 % 1007,1 hPa 0,0 l/m 0,3 km/h (0 Bft) NO 0,00 h 0,0 UV-I 4,5 C 6,8 C 0,8 km/h (0 Bft)
19.09.2013 05:00 6,9 C 20,1 C 8,6 C 7,9 C 7,9 C 1,0 C 90 % 85 % 0 % 1007,5 hPa 0,0 l/m 2,7 km/h (1 Bft) SW 0,00 h 0,0 UV-I 5,3 C 7,9 C 4,2 km/h (1 Bft)
19.09.2013 06:00 7,5 C 20,1 C 9,0 C 8,5 C 8,5 C 1,0 C 89 % 84 % 0 % 1007,6 hPa 0,0 l/m 2,3 km/h (1 Bft) W-SW 0,00 h 0,0 UV-I 5,7 C 8,5 C 3,3 km/h (1 Bft)
19.09.2013 07:00 8,0 C 20,0 C 9,4 C 9,1 C 9,1 C 1,1 C 89 % 85 % 27 % 1008,8 hPa 0,0 l/m 2,2 km/h (1 Bft) SW 0,58 h 0,0 UV-I 6,3 C 9,1 C 3,0 km/h (1 Bft)
19.09.2013 08:00 8,8 C 19,9 C 10,1 C 10,3 C 10,3 C 1,5 C 88 % 84 % 38 % 1009,4 hPa 0,0 l/m 3,1 km/h (1 Bft) W-SW 0,00 h 0,0 UV-I 6,9 C 10,3 C 6,3 km/h (2 Bft)
19.09.2013 09:00 10,1 C 19,7 C 10,7 C 11,2 C 11,2 C 1,1 C 85 % 83 % 29 % 1010,1 hPa 0,0 l/m 5,2 km/h (1 Bft) W-SW 0,00 h 0,0 UV-I 7,6 C 11,2 C 8,4 km/h (2 Bft)
19.09.2013 10:00 11,1 C 19,7 C 11,4 C 12,1 C 12,1 C 0,9 C 80 % 81 % 24 % 1010,6 hPa 0,0 l/m 6,5 km/h (2 Bft) W-SW 0,00 h 0,0 UV-I 7,9 C 12,1 C 9,8 km/h (2 Bft)
19.09.2013 11:00 11,7 C 19,7 C 12,1 C 13,2 C 13,2 C 1,4 C 78 % 79 % 38 % 1011,2 hPa 0,0 l/m 5,5 km/h (1 Bft) SW 0,00 h 0,0 UV-I 7,9 C 13,2 C 6,7 km/h (2 Bft)
19.09.2013 12:00 12,5 C 19,7 C 12,8 C 14,5 C 14,5 C 2,0 C 74 % 76 % 51 % 1011,6 hPa 0,0 l/m 5,3 km/h (1 Bft) W-SW 0,17 h 0,0 UV-I 7,9 C 14,5 C 6,7 km/h (2 Bft)
19.09.2013 13:00 13,0 C 19,8 C 13,4 C 14,4 C 14,4 C 1,4 C 71 % 73 % 37 % 1012,0 hPa 0,0 l/m 7,3 km/h (2 Bft) W-SW 0,00 h 0,0 UV-I 7,8 C 14,4 C 9,2 km/h (2 Bft)
19.09.2013 14:00 13,7 C 19,7 C 14,2 C 17,4 C 17,4 C 3,7 C 68 % 71 % 92 % 1011,8 hPa 0,0 l/m 8,3 km/h (2 Bft) W-SW 0,83 h 0,0 UV-I 7,8 C 17,4 C 12,9 km/h (3 Bft)
19.09.2013 15:00 14,7 C 19,8 C 14,9 C 17,7 C 17,7 C 3,0 C 64 % 68 % 77 % 1011,8 hPa 0,0 l/m 7,6 km/h (2 Bft) W 0,50 h 0,0 UV-I 7,9 C 17,7 C 9,8 km/h (2 Bft)
19.09.2013 16:00 14,9 C 19,9 C 15,3 C 18,2 C 18,2 C 3,3 C 62 % 68 % 77 % 1012,1 hPa 0,0 l/m 6,5 km/h (2 Bft) SW 0,58 h 0,0 UV-I 7,8 C 18,2 C 8,5 km/h (2 Bft)
19.09.2013 17:00 14,4 C 19,9 C 14,7 C 16,8 C 16,8 C 2,3 C 62 % 67 % 61 % 1012,3 hPa 0,0 l/m 5,7 km/h (1 Bft) W-SW 0,25 h 0,0 UV-I 7,2 C 16,8 C 6,2 km/h (2 Bft)
19.09.2013 18:00 13,6 C 20,0 C 13,3 C 14,5 C 14,5 C 1,0 C 65 % 70 % 26 % 1012,3 hPa 0,0 l/m 3,3 km/h (1 Bft) S 0,42 h 0,0 UV-I 7,1 C 14,5 C 4,6 km/h (1 Bft)
19.09.2013 19:00 11,8 C 20,1 C 11,5 C 11,4 C 10,6 C 0,0 C 72 % 76 % 0 % 1012,7 hPa 0,0 l/m 0,7 km/h (0 Bft) S 0,00 h 0,0 UV-I 6,9 C 10,6 C 1,5 km/h (1 Bft)
19.09.2013 20:00 10,7 C 20,1 C 10,9 C 10,6 C 10,4 C 0,0 C 78 % 80 % 0 % 1013,4 hPa 0,0 l/m 0,7 km/h (0 Bft) S 0,00 h 0,0 UV-I 7,0 C 10,4 C 1,2 km/h (1 Bft)
19.09.2013 21:00 11,0 C 20,2 C 11,1 C 10,9 C 10,7 C 0,0 C 80 % 81 % 0 % 1013,5 hPa 0,0 l/m 0,2 km/h (0 Bft) N 0,00 h 0,0 UV-I 7,6 C 10,7 C 0,1 km/h (0 Bft)
19.09.2013 22:00 11,0 C 20,2 C 11,1 C 10,9 C 10,7 C 0,0 C 81 % 82 % 0 % 1013,6 hPa 0,0 l/m 0,2 km/h (0 Bft) N 0,00 h 0,0 UV-I 7,9 C 10,7 C 0,2 km/h (0 Bft)
19.09.2013 23:00 10,8 C 20,2 C 11,0 C 10,7 C 10,6 C 0,0 C 81 % 82 % 0 % 1013,5 hPa 0,0 l/m 0,4 km/h (0 Bft) N 0,00 h 0,0 UV-I 7,8 C 10,6 C 0,6 km/h (0 Bft)
20.09.2013 00:00 10,9 C 20,1 C 11,0 C 10,8 C 10,7 C 0,0 C 82 % 82 % 0 % 1013,4 hPa 0,0 l/m 0,4 km/h (0 Bft) N 0,00 h 0,0 UV-I 7,9 C 10,7 C 1,9 km/h (1 Bft)
20.09.2013 01:00 11,1 C 20,1 C 11,0 C 11,0 C 10,8 C 0,0 C 82 % 82 % 0 % 1013,2 hPa 0,0 l/m 0,5 km/h (0 Bft) N 0,00 h 0,0 UV-I 8,1 C 10,8 C 1,3 km/h (1 Bft)
20.09.2013 02:00 11,0 C 20,1 C 10,9 C 10,9 C 10,8 C 0,0 C 82 % 82 % 0 % 1013,1 hPa 0,0 l/m 0,3 km/h (0 Bft) N 0,00 h 0,0 UV-I 8,1 C 10,8 C 0,8 km/h (0 Bft)
20.09.2013 03:00 10,9 C 20,1 C 10,9 C 10,9 C 10,8 C 0,0 C 82 % 82 % 0 % 1012,8 hPa 0,0 l/m 0,5 km/h (0 Bft) N 0,00 h 0,0 UV-I 8,0 C 10,8 C 1,2 km/h (1 Bft)
20.09.2013 04:00 10,9 C 20,1 C 10,8 C 10,8 C 10,7 C 0,0 C 82 % 82 % 0 % 1012,7 hPa 0,0 l/m 0,5 km/h (0 Bft) N 0,00 h 0,0 UV-I 8,0 C 10,7 C 1,1 km/h (1 Bft)
20.09.2013 05:00 10,9 C 20,1 C 10,8 C 10,8 C 10,7 C 0,0 C 82 % 82 % 0 % 1012,2 hPa 0,0 l/m 0,4 km/h (0 Bft) N 0,00 h 0,0 UV-I 7,9 C 10,7 C 1,0 km/h (0 Bft)
20.09.2013 06:00 11,0 C 20,1 C 10,8 C 10,9 C 10,8 C 0,0 C 82 % 82 % 0 % 1012,0 hPa 0,0 l/m 0,6 km/h (0 Bft) N 0,00 h 0,0 UV-I 8,1 C 10,8 C 1,4 km/h (1 Bft)
20.09.2013 07:00 11,1 C 20,1 C 11,0 C 11,0 C 10,9 C 0,0 C 83 % 83 % 0 % 1012,1 hPa 0,0 l/m 0,7 km/h (0 Bft) S-SO 0,00 h 0,0 UV-I 8,3 C 10,9 C 1,3 km/h (1 Bft)
20.09.2013 08:00 11,0 C 20,3 C 11,2 C 11,0 C 11,0 C 0,1 C 85 % 83 % 2 % 1012,2 hPa 0,0 l/m 0,6 km/h (0 Bft) N 0,00 h 0,0 UV-I 8,5 C 11,0 C 1,2 km/h (1 Bft)
20.09.2013 09:00 10,5 C 20,4 C 11,3 C 11,0 C 11,0 C 0,5 C 86 % 84 % 14 % 1012,2 hPa 0,0 l/m 0,3 km/h (0 Bft) N 0,00 h 0,0 UV-I 8,2 C 11,0 C 1,3 km/h (1 Bft)
20.09.2013 10:00 10,9 C 20,4 C 11,9 C 11,8 C 11,8 C 0,9 C 86 % 84 % 23 % 1012,4 hPa 0,0 l/m 2,1 km/h (1 Bft) SW 0,00 h 0,0 UV-I 8,7 C 11,8 C 4,1 km/h (1 Bft)
20.09.2013 11:00 12,0 C 20,4 C 12,9 C 13,3 C 13,3 C 1,3 C 86 % 83 % 35 % 1012,8 hPa 0,0 l/m 3,4 km/h (1 Bft) SW 0,00 h 0,0 UV-I 9,7 C 13,3 C 5,5 km/h (1 Bft)
20.09.2013 12:00 13,3 C 20,2 C 13,7 C 15,1 C 15,1 C 1,8 C 82 % 82 % 46 % 1013,1 hPa 0,0 l/m 5,0 km/h (1 Bft) S-SW 0,00 h 0,0 UV-I 10,4 C 15,1 C 8,2 km/h (2 Bft)
20.09.2013 13:00 14,4 C 20,2 C 14,6 C 16,3 C 16,3 C 1,9 C 79 % 81 % 49 % 1013,4 hPa 0,0 l/m 4,8 km/h (1 Bft) SW 0,00 h 0,0 UV-I 10,9 C 16,3 C 6,2 km/h (2 Bft)
20.09.2013 14:00 15,1 C 20,2 C 15,1 C 16,8 C 16,8 C 1,7 C 77 % 79 % 46 % 1013,7 hPa 0,0 l/m 5,2 km/h (1 Bft) S 0,00 h 0,0 UV-I 11,0 C 16,8 C 7,1 km/h (2 Bft)
20.09.2013 15:00 15,3 C 20,3 C 15,3 C 16,7 C 16,7 C 1,4 C 75 % 78 % 36 % 1014,2 hPa 0,0 l/m 5,0 km/h (1 Bft) SW 0,00 h 0,0 UV-I 11,0 C 16,7 C 6,2 km/h (2 Bft)
20.09.2013 16:00 15,5 C 20,4 C 15,4 C 16,8 C 16,8 C 1,2 C 75 % 78 % 32 % 1014,3 hPa 0,0 l/m 6,3 km/h (2 Bft) W-SW 0,00 h 0,0 UV-I 11,1 C 16,8 C 9,2 km/h (2 Bft)
20.09.2013 17:00 15,1 C 20,6 C 14,9 C 15,6 C 15,6 C 0,6 C 76 % 79 % 15 % 1014,8 hPa 0,0 l/m 5,6 km/h (1 Bft) SW 0,00 h 0,0 UV-I 10,9 C 15,6 C 5,3 km/h (1 Bft)
20.09.2013 18:00 14,6 C 20,8 C 14,3 C 14,7 C 14,7 C 0,2 C 79 % 80 % 4 % 1015,3 hPa 0,0 l/m 4,1 km/h (1 Bft) W 0,00 h 0,0 UV-I 11,1 C 14,7 C 5,9 km/h (2 Bft)
20.09.2013 19:00 13,9 C 20,8 C 13,5 C 13,8 C 13,6 C 0,0 C 81 % 82 % 0 % 1015,7 hPa 0,0 l/m 3,8 km/h (1 Bft) N-NO 0,00 h 0,0 UV-I 10,7 C 13,6 C 5,1 km/h (1 Bft)
20.09.2013 20:00 13,2 C 20,8 C 13,1 C 13,2 C 13,0 C 0,0 C 83 % 82 % 0 % 1016,4 hPa 0,0 l/m 2,5 km/h (1 Bft) S-SW 0,00 h 0,0 UV-I 10,4 C 13,0 C 3,0 km/h (1 Bft)
20.09.2013 21:00 12,7 C 20,9 C 13,1 C 12,9 C 12,9 C 0,2 C 85 % 83 % 0 % 1016,9 hPa 0,0 l/m 3,3 km/h (1 Bft) SW 0,00 h 0,0 UV-I 10,2 C 12,9 C 3,9 km/h (1 Bft)
20.09.2013 22:00 12,6 C 20,9 C 12,9 C 13,0 C 13,0 C 0,4 C 85 % 83 % 0 % 1017,4 hPa 0,0 l/m 4,0 km/h (1 Bft) W 0,00 h 0,0 UV-I 10,1 C 13,0 C 5,1 km/h (1 Bft)
20.09.2013 23:00 11,8 C 21,1 C 12,7 C 12,3 C 12,3 C 0,4 C 87 % 83 % 0 % 1018,0 hPa 0,7 l/m 4,1 km/h (1 Bft) S-SW 0,00 h 0,0 UV-I 9,7 C 12,3 C 5,0 km/h (1 Bft)
21.09.2013 00:00 11,4 C 21,1 C 12,5 C 12,0 C 12,0 C 0,6 C 88 % 83 % 0 % 1018,1 hPa 0,0 l/m 3,5 km/h (1 Bft) W-SW 0,00 h 0,0 UV-I 9,6 C 12,0 C 5,1 km/h (1 Bft)
21.09.2013 01:00 11,1 C 21,1 C 12,3 C 11,7 C 11,7 C 0,6 C 89 % 84 % 0 % 1018,7 hPa 0,0 l/m 3,1 km/h (1 Bft) W-SW 0,00 h 0,0 UV-I 9,4 C 11,7 C 3,4 km/h (1 Bft)
21.09.2013 02:00 11,1 C 21,1 C 12,3 C 11,8 C 11,8 C 0,7 C 89 % 84 % 0 % 1018,8 hPa 0,0 l/m 4,0 km/h (1 Bft) S 0,00 h 0,0 UV-I 9,4 C 11,8 C 6,2 km/h (2 Bft)
21.09.2013 03:00 11,1 C 21,0 C 12,2 C 11,7 C 11,7 C 0,6 C 89 % 84 % 0 % 1019,2 hPa 0,0 l/m 3,7 km/h (1 Bft) SW 0,00 h 0,0 UV-I 9,4 C 11,7 C 4,2 km/h (1 Bft)
21.09.2013 04:00 11,0 C 21,0 C 12,1 C 11,5 C 11,5 C 0,6 C 89 % 84 % 0 % 1019,5 hPa 0,0 l/m 2,7 km/h (1 Bft) SW 0,00 h 0,0 UV-I 9,2 C 11,5 C 3,5 km/h (1 Bft)
21.09.2013 05:00 11,0 C 20,9 C 12,1 C 11,6 C 11,6 C 0,7 C 89 % 84 % 0 % 1020,0 hPa 0,0 l/m 3,6 km/h (1 Bft) W-SW 0,00 h 0,0 UV-I 9,2 C 11,6 C 6,0 km/h (2 Bft)
21.09.2013 06:00 11,1 C 20,9 C 12,1 C 11,9 C 11,9 C 0,8 C 89 % 84 % 0 % 1020,6 hPa 0,0 l/m 3,8 km/h (1 Bft) W-SW 0,00 h 0,0 UV-I 9,3 C 11,9 C 5,7 km/h (1 Bft)
21.09.2013 07:00 10,8 C 21,1 C 11,9 C 11,4 C 11,4 C 0,7 C 89 % 84 % 16 % 1021,1 hPa 0,0 l/m 2,9 km/h (1 Bft) W-SW 0,42 h 0,0 UV-I 9,0 C 11,4 C 3,7 km/h (1 Bft)
21.09.2013 08:00 10,7 C 21,1 C 12,0 C 11,6 C 11,6 C 0,9 C 90 % 86 % 24 % 1021,9 hPa 0,0 l/m 2,5 km/h (1 Bft) W-SW 0,00 h 0,0 UV-I 9,2 C 11,6 C 3,7 km/h (1 Bft)
21.09.2013 09:00 11,0 C 20,9 C 12,4 C 12,1 C 12,1 C 1,1 C 90 % 86 % 29 % 1022,2 hPa 0,7 l/m 1,9 km/h (1 Bft) W-SW 0,00 h 0,0 UV-I 9,4 C 12,1 C 2,7 km/h (1 Bft)
21.09.2013 10:00 11,3 C 20,8 C 12,6 C 12,4 C 12,4 C 1,1 C 90 % 86 % 30 % 1023,1 hPa 0,0 l/m 2,6 km/h (1 Bft) W-SW 0,00 h 0,0 UV-I 9,7 C 12,4 C 3,4 km/h (1 Bft)
21.09.2013 11:00 11,9 C 20,8 C 13,4 C 13,9 C 13,9 C 1,9 C 89 % 86 % 51 % 1023,7 hPa 0,0 l/m 2,4 km/h (1 Bft) W-SW 0,00 h 0,0 UV-I 10,1 C 13,9 C 3,8 km/h (1 Bft)
21.09.2013 12:00 12,6 C 20,8 C 13,6 C 14,4 C 14,4 C 1,8 C 86 % 84 % 47 % 1023,9 hPa 0,0 l/m 3,4 km/h (1 Bft) SW 0,00 h 0,0 UV-I 10,4 C 14,4 C 4,8 km/h (1 Bft)
21.09.2013 13:00 12,5 C 20,8 C 13,5 C 14,2 C 14,2 C 1,7 C 86 % 84 % 45 % 1024,4 hPa 0,0 l/m 3,0 km/h (1 Bft) SW 0,00 h 0,0 UV-I 10,3 C 14,2 C 4,2 km/h (1 Bft)
21.09.2013 14:00 13,3 C 20,7 C 13,8 C 14,8 C 14,8 C 1,5 C 85 % 83 % 41 % 1024,7 hPa 0,0 l/m 2,2 km/h (1 Bft) SW 0,00 h 0,0 UV-I 10,8 C 14,8 C 3,3 km/h (1 Bft)
21.09.2013 15:00 13,7 C 20,7 C 14,1 C 15,2 C 15,2 C 1,4 C 84 % 83 % 38 % 1024,9 hPa 0,0 l/m 1,9 km/h (1 Bft) SW 0,00 h 0,0 UV-I 11,1 C 15,2 C 1,9 km/h (1 Bft)
21.09.2013 16:00 15,1 C 20,7 C 15,1 C 17,3 C 17,3 C 2,2 C 81 % 81 % 57 % 1024,7 hPa 0,0 l/m 2,5 km/h (1 Bft) SW 0,00 h 0,0 UV-I 11,8 C 17,3 C 3,2 km/h (1 Bft)
21.09.2013 17:00 15,4 C 20,7 C 15,1 C 16,9 C 16,9 C 1,5 C 78 % 80 % 38 % 1024,9 hPa 0,0 l/m 2,6 km/h (1 Bft) SW 0,00 h 0,0 UV-I 11,6 C 16,9 C 3,0 km/h (1 Bft)
21.09.2013 18:00 14,7 C 20,9 C 14,3 C 14,8 C 14,8 C 0,1 C 80 % 80 % 3 % 1025,3 hPa 0,0 l/m 0,3 km/h (0 Bft) SW 0,00 h 0,0 UV-I 11,3 C 14,8 C 0,3 km/h (0 Bft)
21.09.2013 19:00 13,3 C 21,1 C 13,1 C 13,0 C 12,6 C 0,0 C 83 % 82 % 0 % 1025,4 hPa 0,0 l/m 0,0 km/h (0 Bft) N 0,00 h 0,0 UV-I 10,4 C 12,6 C 0,0 km/h (0 Bft)
21.09.2013 20:00 11,7 C 21,2 C 12,6 C 12,2 C 12,2 C 0,5 C 87 % 83 % 0 % 1025,8 hPa 0,0 l/m 0,0 km/h (0 Bft) N 0,00 h 0,0 UV-I 9,6 C 12,2 C 0,0 km/h (0 Bft)
21.09.2013 21:00 11,4 C 21,3 C 12,4 C 12,0 C 12,0 C 0,6 C 88 % 84 % 0 % 1026,0 hPa 0,0 l/m 0,0 km/h (0 Bft) N 0,00 h 0,0 UV-I 9,4 C 12,0 C 0,0 km/h (0 Bft)
21.09.2013 22:00 10,6 C 21,3 C 11,5 C 10,7 C 10,6 C 0,1 C 88 % 84 % 0 % 1026,1 hPa 0,0 l/m 0,0 km/h (0 Bft) N 0,00 h 0,0 UV-I 8,7 C 10,6 C 0,0 km/h (0 Bft)
21.09.2013 23:00 9,5 C 21,3 C 10,4 C 9,6 C 9,6 C 0,1 C 89 % 84 % 0 % 1026,2 hPa 0,0 l/m 0,0 km/h (0 Bft) N 0,00 h 0,0 UV-I 7,7 C 9,6 C 0,0 km/h (0 Bft)
22.09.2013 00:00 8,7 C 21,2 C 9,7 C 8,8 C 8,8 C 0,1 C 89 % 85 % 0 % 1026,7 hPa 0,0 l/m 0,0 km/h (0 Bft) N 0,00 h 0,0 UV-I 7,0 C 8,8 C 0,0 km/h (0 Bft)
22.09.2013 01:00 8,3 C 21,1 C 9,4 C 8,5 C 8,5 C 0,2 C 90 % 85 % 0 % 1026,7 hPa 0,0 l/m 0,0 km/h (0 Bft) N 0,00 h 0,0 UV-I 6,7 C 8,5 C 0,0 km/h (0 Bft)
22.09.2013 02:00 8,2 C 21,1 C 9,6 C 8,9 C 8,9 C 0,7 C 91 % 85 % 0 % 1026,7 hPa 0,0 l/m 0,0 km/h (0 Bft) N 0,00 h 0,0 UV-I 6,8 C 8,9 C 0,0 km/h (0 Bft)
22.09.2013 03:00 8,5 C 20,9 C 10,1 C 9,5 C 9,5 C 1,0 C 91 % 85 % 0 % 1026,5 hPa 0,0 l/m 0,0 km/h (0 Bft) N 0,00 h 0,0 UV-I 7,2 C 9,5 C 0,0 km/h (0 Bft)
22.09.2013 04:00 8,8 C 20,9 C 10,4 C 9,7 C 9,7 C 0,9 C 92 % 86 % 0 % 1026,1 hPa 0,0 l/m 0,0 km/h (0 Bft) N 0,00 h 0,0 UV-I 7,6 C 9,7 C 0,0 km/h (0 Bft)
22.09.2013 05:00 8,9 C 20,9 C 10,4 C 9,6 C 9,6 C 0,8 C 92 % 86 % 0 % 1026,2 hPa 0,0 l/m 0,0 km/h (0 Bft) N 0,00 h 0,0 UV-I 7,6 C 9,6 C 0,0 km/h (0 Bft)
22.09.2013 06:00 9,0 C 20,8 C 10,5 C 9,9 C 9,9 C 0,9 C 92 % 86 % 0 % 1026,1 hPa 0,0 l/m 0,0 km/h (0 Bft) N 0,00 h 0,0 UV-I 7,8 C 9,9 C 0,0 km/h (0 Bft)
22.09.2013 07:00 9,2 C 20,7 C 10,7 C 10,0 C 10,0 C 0,8 C 92 % 85 % 18 % 1026,1 hPa 0,0 l/m 0,1 km/h (0 Bft) N 0,42 h 0,0 UV-I 7,9 C 10,0 C 0,0 km/h (0 Bft)
22.09.2013 08:00 9,5 C 20,6 C 11,2 C 10,7 C 10,7 C 1,2 C 92 % 85 % 32 % 1026,3 hPa 0,0 l/m 0,1 km/h (0 Bft) N 0,00 h 0,0 UV-I 8,3 C 10,7 C 0,1 km/h (0 Bft)
22.09.2013 09:00 10,8 C 20,5 C 12,5 C 13,5 C 13,5 C 2,7 C 92 % 84 % 71 % 1025,8 hPa 0,0 l/m 0,3 km/h (0 Bft) O-SO 0,08 h 0,0 UV-I 9,5 C 13,5 C 1,1 km/h (0 Bft)
22.09.2013 10:00 12,8 C 20,4 C 13,9 C 15,8 C 15,8 C 3,0 C 87 % 82 % 79 % 1025,9 hPa 0,0 l/m 1,9 km/h (1 Bft) SW 0,50 h 0,0 UV-I 10,7 C 15,8 C 3,8 km/h (1 Bft)
22.09.2013 11:00 14,8 C 20,4 C 15,1 C 17,2 C 17,2 C 2,4 C 81 % 80 % 63 % 1025,5 hPa 0,0 l/m 3,3 km/h (1 Bft) S-SO 0,00 h 0,0 UV-I 11,4 C 17,2 C 5,5 km/h (1 Bft)
22.09.2013 12:00 16,1 C 20,4 C 16,5 C 18,7 C 18,7 C 2,6 C 75 % 76 % 68 % 1025,4 hPa 0,0 l/m 4,5 km/h (1 Bft) S 0,33 h 0,0 UV-I 11,6 C 18,7 C 5,3 km/h (1 Bft)
22.09.2013 13:00 17,1 C 20,4 C 17,1 C 20,1 C 20,1 C 2,9 C 69 % 72 % 77 % 1025,3 hPa 0,0 l/m 5,0 km/h (1 Bft) W-SW 0,50 h 0,0 UV-I 11,4 C 20,1 C 6,3 km/h (2 Bft)
22.09.2013 14:00 17,0 C 20,5 C 16,8 C 18,4 C 18,4 C 1,4 C 70 % 73 % 38 % 1025,1 hPa 0,0 l/m 5,0 km/h (1 Bft) S 0,00 h 0,0 UV-I 11,6 C 18,4 C 7,1 km/h (2 Bft)
22.09.2013 15:00 17,0 C 20,6 C 16,6 C 18,1 C 18,1 C 1,1 C 71 % 74 % 28 % 1024,6 hPa 0,0 l/m 4,2 km/h (1 Bft) W-SW 0,00 h 0,0 UV-I 11,8 C 18,1 C 5,7 km/h (1 Bft)
22.09.2013 16:00 17,2 C 20,8 C 16,7 C 18,3 C 18,3 C 1,1 C 72 % 75 % 30 % 1024,3 hPa 0,0 l/m 4,2 km/h (1 Bft) W-SW 0,00 h 0,0 UV-I 12,0 C 18,3 C 5,6 km/h (1 Bft)
22.09.2013 17:00 17,3 C 20,9 C 16,9 C 18,5 C 18,5 C 1,2 C 70 % 74 % 31 % 1024,0 hPa 0,0 l/m 4,8 km/h (1 Bft) W-SW 0,00 h 0,0 UV-I 11,8 C 18,5 C 6,1 km/h (2 Bft)
22.09.2013 18:00 16,7 C 20,9 C 16,2 C 17,1 C 17,1 C 0,4 C 71 % 74 % 11 % 1023,6 hPa 0,0 l/m 5,2 km/h (1 Bft) S-SW 0,08 h 0,0 UV-I 11,5 C 17,1 C 5,3 km/h (1 Bft)
22.09.2013 19:00 15,8 C 21,1 C 15,3 C 15,8 C 15,6 C 0,0 C 75 % 77 % 0 % 1023,8 hPa 0,0 l/m 4,3 km/h (1 Bft) W 0,00 h 0,0 UV-I 11,3 C 15,6 C 5,9 km/h (2 Bft)
22.09.2013 20:00 15,3 C 21,2 C 14,8 C 15,2 C 15,1 C 0,0 C 78 % 79 % 0 % 1023,6 hPa 0,0 l/m 3,4 km/h (1 Bft) S 0,00 h 0,0 UV-I 11,4 C 15,1 C 4,7 km/h (1 Bft)
22.09.2013 21:00 15,1 C 21,2 C 14,6 C 15,0 C 15,0 C 0,0 C 80 % 80 % 0 % 1023,5 hPa 0,0 l/m 4,4 km/h (1 Bft) SW 0,00 h 0,0 UV-I 11,6 C 15,0 C 5,3 km/h (1 Bft)
22.09.2013 22:00 14,7 C 21,3 C 14,3 C 14,7 C 14,6 C 0,0 C 83 % 81 % 0 % 1023,2 hPa 0,0 l/m 3,8 km/h (1 Bft) W-SW 0,00 h 0,0 UV-I 11,8 C 14,6 C 4,7 km/h (1 Bft)
22.09.2013 23:00 14,3 C 21,3 C 14,2 C 14,4 C 14,4 C 0,1 C 84 % 82 % 0 % 1022,9 hPa 0,0 l/m 1,9 km/h (1 Bft) SW 0,00 h 0,0 UV-I 11,6 C 14,4 C 2,5 km/h (1 Bft)
Min-Datum _ 17.09.13 19.09.13 17.09.13 17.09.13 17.09.13 16.09.13 17.09.13 19.09.13 16.09.13 18.09.13 - 16.09.13 - - 16.09.13 19.09.13 17.09.13 16.09.13
_ Min-Zeit 06:55 09:30 06:55 06:55 06:55 06:20 17:25 16:40 00:00 09:15 - 00:00 - - 00:00 04:10 06:55 00:00
Minimum _ 5,9 C 19,7 C 7,3 C 5,9 C 5,8 C 0,0 C 59 % 65 % 0 % 996,7 hPa - 0,0 km/h (0 Bft) - - 0,0 UV-I 4,3 C 5,8 C 0,0 km/h (0 Bft)
Max-Datum _ 22.09.13 16.09.13 22.09.13 22.09.13 22.09.13 17.09.13 22.09.13 17.09.13 17.09.13 22.09.13 16.09.13 19.09.13 - 17.09.13 16.09.13 22.09.13 22.09.13 19.09.13
_ Max-Zeit 17:05 00:00 13:05 13:05 13:05 12:55 09:00 06:50 12:45 00:10 20:25 14:30 - 12:30 00:00 16:30 13:05 14:40
Maximum _ 17,5 C 23,0 C 17,3 C 21,1 C 21,1 C 5,1 C 93 % 90 % 100 % 1027,2 hPa 2,7 l/m 9,3 km/h
W-SW (2 Bft)
- 0,08 h 0,0 UV-I 12,3 C 21,1 C 22,2 km/h
W-SW (4 Bft)
Durchschnitt _ 11,7 C 20,8 C 12,2 C 12,4 C 12,4 C 0,8 C 82 % 82 % 18 % 1011,1 hPa #9,6 l/m 2,3 km/h (1 Bft) W-SW #7:25 h 0,0 UV-I 8,6 C 12,4 C 3,3 km/h (1 Bft)
2013 www.wetterstation-wechselburg.de